Time;durP1;ratioP1;P1;durP2;ratioP2;P2;SDS_P1;SDS_P2;PMS_P1;PMS_P2;Temp;Humidity;BMP_temperature;BMP_pressure;BME280_temperature;BME280_humidity;BME280_pressure;Samples;Min_cycle;Max_cycle;Signal;HPM_P1;HPM_P2
2022/10/17 00:09:56;;;;;;;5.93;3.00;;;;;;;11.59;100.00;98245.94;18099242;32;20079;-63
2022/10/17 00:19:59;;;;;;;5.07;2.58;;;;;;;11.50;100.00;98247.53;18199379;32;20122;-63
2022/10/17 00:30:03;;;;;;;7.80;2.03;;;;;;;11.39;100.00;98254.78;18160488;32;20084;-62
2022/10/17 00:40:06;;;;;;;5.15;2.62;;;;;;;11.32;100.00;98248.78;18217171;32;20430;-63
2022/10/17 00:50:09;;;;;;;7.47;2.58;;;;;;;11.30;100.00;98261.75;18222626;32;20065;-63
2022/10/17 01:00:13;;;;;;;4.40;2.42;;;;;;;11.22;100.00;98264.94;18221965;32;20061;-63
2022/10/17 01:10:17;;;;;;;3.47;2.05;;;;;;;11.13;100.00;98261.91;18096537;32;20090;-63
2022/10/17 01:20:55;;;;;;;6.18;2.42;;;;;;;11.06;100.00;98245.06;18034443;32;20369;-63
2022/10/17 01:31:07;;;;;;;2.60;1.60;;;;;;;10.98;100.00;98262.59;18041063;32;20104;-63
2022/10/17 01:41:22;;;;;;;3.00;1.73;;;;;;;10.89;100.00;98262.25;18072486;32;20066;-63
2022/10/17 01:51:30;;;;;;;;;;;;;;;10.77;100.00;98259.72;18186137;32;20470;-63
2022/10/17 02:01:36;;;;;;;2.10;1.48;;;;;;;10.72;100.00;98267.78;18239617;32;19946;-63
2022/10/17 02:11:39;;;;;;;4.68;2.20;;;;;;;10.68;100.00;98266.66;18239288;32;20101;-63
2022/10/17 02:21:47;;;;;;;4.05;2.00;;;;;;;10.64;100.00;98270.94;18237658;32;20157;-63
2022/10/17 02:32:01;;;;;;;2.20;1.80;;;;;;;10.62;100.00;98267.66;18238120;32;20423;-63
2022/10/17 02:42:08;;;;;;;5.40;1.67;;;;;;;10.56;100.00;98268.69;18237446;32;20100;-62
2022/10/17 02:52:48;;;;;;;3.83;2.00;;;;;;;10.49;100.00;98274.31;18237421;32;20058;-62
2022/10/17 03:02:52;;;;;;;1.98;1.48;;;;;;;10.46;100.00;98275.62;18040431;32;20059;-63
2022/10/17 03:12:55;;;;;;;2.15;1.85;;;;;;;10.45;100.00;98275.88;18040380;32;20152;-63
2022/10/17 03:22:57;;;;;;;5.28;2.10;;;;;;;10.39;100.00;98283.12;18039691;32;20083;-63
2022/10/17 03:33:00;;;;;;;5.93;1.97;;;;;;;10.40;100.00;98286.63;18075599;32;20065;-63
2022/10/17 03:43:03;;;;;;;2.47;1.57;;;;;;;10.41;100.00;98289.09;18235139;32;20042;-62
2022/10/17 03:53:05;;;;;;;3.22;1.65;;;;;;;10.38;100.00;98300.41;18234086;32;20370;-62
2022/10/17 04:03:07;;;;;;;3.23;1.87;;;;;;;10.34;100.00;98297.38;18234434;32;20087;-62
2022/10/17 04:13:15;;;;;;;2.42;1.37;;;;;;;10.31;100.00;98300.56;18234046;32;20085;-62
2022/10/17 04:23:18;;;;;;;4.23;1.97;;;;;;;10.26;100.00;98318.63;18233294;32;20101;-62
2022/10/17 04:33:20;;;;;;;2.70;1.73;;;;;;;10.24;100.00;98320.78;18233238;32;20076;-62
2022/10/17 04:43:23;;;;;;;2.70;1.60;;;;;;;10.18;100.00;98323.41;18232474;32;20042;-63
2022/10/17 04:53:26;;;;;;;1.93;1.50;;;;;;;10.13;100.00;98336.03;18232052;32;20081;-62
2022/10/17 05:03:29;;;;;;;2.10;1.80;;;;;;;10.11;100.00;98332.75;18235923;32;20054;-62
2022/10/17 05:13:32;;;;;;;5.47;1.73;;;;;;;10.09;100.00;98340.31;18241846;32;20138;-62
2022/10/17 05:23:35;;;;;;;2.30;1.70;;;;;;;10.07;100.00;98335.16;18241482;32;20106;-62
2022/10/17 05:33:38;;;;;;;2.60;1.90;;;;;;;10.01;100.00;98353.16;18241114;32;20379;-62
2022/10/17 05:43:41;;;;;;;3.17;1.93;;;;;;;10.02;100.00;98370.22;18168535;32;20115;-62
2022/10/17 05:53:43;;;;;;;6.50;2.10;;;;;;;9.98;100.00;98366.38;18168092;32;20066;-62
2022/10/17 06:03:46;;;;;;;2.77;2.03;;;;;;;9.95;100.00;98383.09;18167718;32;20118;-62
2022/10/17 06:13:49;;;;;;;6.25;2.60;;;;;;;10.01;100.00;98393.69;18177425;32;20058;-63
2022/10/17 06:23:53;;;;;;;5.60;2.30;;;;;;;10.08;100.00;98392.72;18237485;32;20415;-62
2022/10/17 06:33:56;;;;;;;5.70;2.23;;;;;;;10.27;100.00;98404.06;18236979;32;20058;-62
2022/10/17 06:44:09;;;;;;;3.28;2.03;;;;;;;10.46;100.00;98410.00;18238079;32;20151;-62
2022/10/17 06:54:23;;;;;;;2.37;1.77;;;;;;;10.69;100.00;98419.75;18237013;32;20089;-62
2022/10/17 07:04:29;;;;;;;2.78;1.95;;;;;;;10.95;100.00;98439.81;18236780;32;20047;-63
2022/10/17 07:14:35;;;;;;;2.00;1.70;;;;;;;11.18;100.00;98464.94;18235602;32;20061;-63
2022/10/17 07:24:39;;;;;;;3.00;2.00;;;;;;;11.45;100.00;98454.13;18235029;32;20054;-62
2022/10/17 07:34:43;;;;;;;2.78;1.70;;;;;;;11.79;100.00;98469.31;18234543;32;20073;-62
2022/10/17 07:44:46;;;;;;;2.70;1.70;;;;;;;12.20;100.00;98480.50;18235243;32;20054;-62
2022/10/17 07:54:49;;;;;;;1.70;1.30;;;;;;;12.74;100.00;98494.94;18233111;32;20063;-63
2022/10/17 08:04:53;;;;;;;3.15;1.50;;;;;;;13.22;100.00;98512.78;18233243;32;20066;-63
2022/10/17 08:14:57;;;;;;;2.90;1.67;;;;;;;13.61;100.00;98527.03;18232861;32;20065;-63
2022/10/17 08:25:02;;;;;;;1.52;1.20;;;;;;;13.98;100.00;98528.72;18233413;32;20081;-63
2022/10/17 08:35:08;;;;;;;1.85;1.10;;;;;;;14.41;100.00;98545.56;18232517;32;20110;-63
2022/10/17 08:45:32;;;;;;;1.63;1.37;;;;;;;14.74;100.00;98548.81;18232368;32;20374;-63
2022/10/17 08:55:43;;;;;;;2.58;2.00;;;;;;;15.07;100.00;98550.09;18231575;32;20396;-63
2022/10/17 09:06:06;;;;;;;3.08;2.00;;;;;;;15.40;100.00;98541.50;18231401;32;20069;-60
2022/10/17 09:16:31;;;;;;;3.35;2.15;;;;;;;15.76;100.00;98544.84;18231170;32;20050;-60
2022/10/17 09:27:06;;;;;;;;;;;;;;;;;;;;;
2022/10/17 09:37:50;;;;;;;;;;;;;;;;;;;;;
2022/10/17 09:48:20;;;;;;;3.00;1.80;;;;;;;16.76;100.00;98560.97;18231121;32;20058;-63
2022/10/17 09:58:53;;;;;;;1.85;1.62;;;;;;;16.84;100.00;98578.66;18239721;32;20074;-63
2022/10/17 10:09:04;;;;;;;2.37;1.50;;;;;;;17.00;100.00;98581.25;18240168;32;20407;-63
2022/10/17 10:19:29;;;;;;;4.35;1.95;;;;;;;17.30;100.00;98577.34;18238752;32;20098;-63
2022/10/17 10:29:48;;;;;;;3.22;2.35;;;;;;;17.67;100.00;98577.69;18238331;32;20121;-63
2022/10/17 10:40:06;;;;;;;2.65;2.00;;;;;;;18.11;98.68;98582.00;18237858;32;20059;-61
2022/10/17 10:50:40;;;;;;;3.72;2.33;;;;;;;18.45;97.50;98608.31;18237621;32;20095;-61
2022/10/17 11:00:49;;;;;;;2.80;1.63;;;;;;;18.54;95.58;98612.00;18236716;32;20431;-61
2022/10/17 11:11:03;;;;;;;2.50;1.58;;;;;;;18.62;93.03;98624.19;18236474;32;20458;-61
2022/10/17 11:21:34;;;;;;;3.40;1.92;;;;;;;18.82;91.44;98617.53;18236384;32;20407;-61
2022/10/17 11:31:50;;;;;;;1.50;1.40;;;;;;;19.07;89.86;98620.97;18235854;32;20047;-61
2022/10/17 11:42:06;;;;;;;2.17;1.37;;;;;;;19.59;91.03;98621.56;18235443;32;20074;-61
2022/10/17 11:52:34;;;;;;;2.62;1.90;;;;;;;20.23;87.01;98620.75;18234342;32;20369;-61
2022/10/17 12:03:35;;;;;;;2.08;1.60;;;;;;;20.68;87.58;98619.13;18161710;32;20066;-60
2022/10/17 12:13:46;;;;;;;1.60;1.30;;;;;;;20.98;84.19;98609.31;18036738;32;20063;-61
2022/10/17 12:23:54;;;;;;;5.05;1.60;;;;;;;21.21;70.42;98615.56;18037180;32;20525;-61
2022/10/17 12:34:03;;;;;;;4.68;1.80;;;;;;;21.66;72.07;98617.38;18036375;32;20059;-61
2022/10/17 12:44:14;;;;;;;2.95;1.50;;;;;;;21.94;67.51;98608.81;18096078;32;20050;-61
2022/10/17 12:54:33;;;;;;;;;;;;;;;;;;;;;
2022/10/17 13:04:53;;;;;;;2.85;1.27;;;;;;;21.63;70.52;98596.78;18231321;32;20055;-61
2022/10/17 13:15:00;;;;;;;1.80;1.30;;;;;;;21.54;67.47;98595.94;18230966;32;20099;-62
2022/10/17 13:25:09;;;;;;;1.98;1.62;;;;;;;21.30;70.23;98594.41;18221464;32;20403;-61
2022/10/17 13:35:21;;;;;;;1.73;1.50;;;;;;;21.06;74.35;98572.00;18240924;32;20062;-61
2022/10/17 13:45:54;;;;;;;3.08;1.40;;;;;;;20.87;71.29;98572.22;18240548;32;20046;-61
2022/10/17 13:56:10;;;;;;;2.97;1.62;;;;;;;20.94;67.81;98567.06;18238784;32;20384;-61
2022/10/17 14:06:33;;;;;;;1.80;1.15;;;;;;;20.73;70.66;98577.81;18239587;32;20098;-61
2022/10/17 14:16:41;;;;;;;1.80;1.40;;;;;;;20.51;72.26;98564.91;18237608;32;20059;-61
2022/10/17 14:27:00;;;;;;;1.60;1.30;;;;;;;20.35;73.89;98562.53;18238662;32;20446;-61
2022/10/17 14:37:27;;;;;;;1.60;1.37;;;;;;;20.19;75.42;98559.34;18236832;32;20058;-61
2022/10/17 14:47:31;;;;;;;1.98;1.33;;;;;;;20.07;76.42;98572.81;18237989;32;20491;-61
2022/10/17 14:57:53;;;;;;;1.90;1.20;;;;;;;19.86;78.37;98567.81;18237474;32;20047;-61
2022/10/17 15:07:56;;;;;;;3.33;1.33;;;;;;;19.68;81.36;98576.94;18223324;32;20050;-61
2022/10/17 15:18:00;;;;;;;;;;;;;;;19.47;83.24;98564.50;18236647;32;20061;-61
2022/10/17 15:28:04;;;;;;;1.60;1.37;;;;;;;19.28;85.82;98578.34;18235234;32;19949;-61
2022/10/17 15:38:07;;;;;;;1.55;1.20;;;;;;;19.03;88.45;98578.84;18235400;32;20062;-61
2022/10/17 15:48:18;;;;;;;1.93;1.50;;;;;;;18.77;91.27;98580.09;18234296;32;20092;-61
2022/10/17 15:58:22;;;;;;;2.05;1.40;;;;;;;18.47;93.83;98581.44;18220742;32;20051;-60
2022/10/17 16:08:25;;;;;;;1.50;1.13;;;;;;;18.13;96.04;98579.81;18233875;32;20339;-61
2022/10/17 16:18:29;;;;;;;3.92;1.48;;;;;;;17.82;98.68;98580.22;18233083;32;20055;-61
2022/10/17 16:28:32;;;;;;;3.93;1.70;;;;;;;17.52;100.00;98579.53;18233429;32;20073;-61
2022/10/17 16:38:34;;;;;;;5.03;1.57;;;;;;;17.22;100.00;98594.38;18231636;32;20054;-60
2022/10/17 16:48:37;;;;;;;1.87;1.67;;;;;;;16.86;100.00;98597.47;18231273;32;20054;-61
2022/10/17 16:58:42;;;;;;;2.83;1.77;;;;;;;16.47;100.00;98610.09;18230067;32;20050;-61
2022/10/17 17:08:45;;;;;;;4.90;2.57;;;;;;;16.12;100.00;98633.84;18230743;32;20100;-60
2022/10/17 17:18:50;;;;;;;4.18;3.00;;;;;;;15.77;100.00;98649.25;18217654;32;20203;-61
2022/10/17 17:28:57;;;;;;;3.25;2.00;;;;;;;15.45;100.00;98653.22;18230665;32;20066;-60
2022/10/17 17:39:03;;;;;;;4.07;1.95;;;;;;;15.18;100.00;98659.84;18229347;32;20058;-61
2022/10/17 17:49:06;;;;;;;2.58;2.17;;;;;;;14.98;100.00;98670.75;18228705;32;20055;-60
2022/10/17 17:59:11;;;;;;;6.37;1.90;;;;;;;14.76;100.00;98674.59;18229083;32;20491;-60
2022/10/17 18:09:14;;;;;;;3.17;2.28;;;;;;;14.59;100.00;98677.53;18158825;32;20074;-60
2022/10/17 18:19:18;;;;;;;4.53;2.58;;;;;;;14.41;100.00;98682.44;18167264;32;20086;-60
2022/10/17 18:29:20;;;;;;;2.63;1.90;;;;;;;14.28;100.00;98698.47;18166861;32;20062;-63
2022/10/17 18:39:27;;;;;;;6.25;2.22;;;;;;;14.14;100.00;98690.00;18165363;32;20110;-63
2022/10/17 18:49:30;;;;;;;2.55;1.98;;;;;;;14.04;100.00;98688.88;18237939;32;20065;-63
2022/10/17 18:59:33;;;;;;;6.85;2.30;;;;;;;13.96;100.00;98689.41;18237061;32;20058;-63
2022/10/17 19:09:36;;;;;;;2.50;1.73;;;;;;;13.88;100.00;98698.91;18235637;32;20042;-63
2022/10/17 19:19:40;;;;;;;3.47;2.00;;;;;;;13.80;100.00;98696.72;18235357;32;20106;-63
2022/10/17 19:29:42;;;;;;;5.40;2.20;;;;;;;13.77;100.00;98697.22;18236372;32;20047;-63
2022/10/17 19:39:47;;;;;;;4.20;2.83;;;;;;;13.71;100.00;98693.66;18234620;32;20062;-63
2022/10/17 19:49:50;;;;;;;3.47;2.25;;;;;;;13.66;100.00;98695.53;18235137;32;20094;-63
2022/10/17 19:59:53;;;;;;;6.40;2.47;;;;;;;13.56;100.00;98699.84;18234860;32;20099;-63
2022/10/17 20:09:57;;;;;;;3.27;2.50;;;;;;;13.47;100.00;98706.88;18234309;32;20042;-63
2022/10/17 20:20:00;;;;;;;3.87;2.28;;;;;;;13.34;100.00;98724.41;18234394;32;20065;-63
2022/10/17 20:30:09;;;;;;;3.90;2.53;;;;;;;13.29;100.00;98727.13;18233523;32;20058;-63
2022/10/17 20:40:11;;;;;;;4.95;2.28;;;;;;;13.18;100.00;98731.66;18232567;32;20125;-63
2022/10/17 20:50:38;;;;;;;4.50;2.20;;;;;;;13.15;100.00;98737.59;18159885;32;20126;-63
2022/10/17 21:00:42;;;;;;;6.10;2.20;;;;;;;13.11;100.00;98754.69;18159543;32;20077;-63
2022/10/17 21:10:44;;;;;;;2.50;1.90;;;;;;;13.03;100.00;98743.22;18159596;32;20090;-63
2022/10/17 21:20:47;;;;;;;5.28;2.10;;;;;;;13.09;100.00;98748.69;18216504;32;20054;-63
2022/10/17 21:30:49;;;;;;;4.28;1.98;;;;;;;13.15;100.00;98753.88;18230672;32;20375;-63
2022/10/17 21:40:52;;;;;;;2.30;1.95;;;;;;;13.15;100.00;98744.94;18229256;32;20046;-63
2022/10/17 21:51:00;;;;;;;2.35;1.85;;;;;;;13.22;100.00;98743.63;18239838;32;20073;-63
2022/10/17 22:01:10;;;;;;;3.60;2.40;;;;;;;13.31;100.00;98732.28;18239909;32;20050;-64
2022/10/17 22:11:16;;;;;;;2.67;2.00;;;;;;;13.36;100.00;98724.19;18239137;32;20089;-63
2022/10/17 22:21:21;;;;;;;4.47;2.25;;;;;;;13.37;100.00;98725.81;18092774;32;20074;-63
2022/10/17 22:31:23;;;;;;;3.47;2.70;;;;;;;13.41;100.00;98707.09;18104335;32;20066;-63
2022/10/17 22:41:26;;;;;;;4.03;2.58;;;;;;;13.51;100.00;98718.84;18104075;32;20160;-63
2022/10/17 22:51:28;;;;;;;3.20;2.35;;;;;;;13.57;100.00;98711.53;18123457;32;20450;-63
2022/10/17 23:01:30;;;;;;;2.75;2.28;;;;;;;13.58;100.00;98709.62;18236747;32;20050;-64
2022/10/17 23:11:33;;;;;;;3.40;2.42;;;;;;;13.59;100.00;98714.00;18236935;32;20073;-63
2022/10/17 23:21:35;;;;;;;7.37;2.33;;;;;;;13.54;100.00;98712.87;18236364;32;20466;-63
2022/10/17 23:31:37;;;;;;;3.67;2.80;;;;;;;13.57;100.00;98708.81;18235972;32;20434;-63
2022/10/17 23:41:40;;;;;;;3.78;2.30;;;;;;;13.64;100.00;98686.84;18235585;32;20067;-63
2022/10/17 23:51:42;;;;;;;3.00;2.30;;;;;;;13.61;100.00;98707.22;18235465;32;20122;-63
